VIR185V EGLL-TBPB
Flight info
| Callsign | VIR185V |
|---|---|
| Flight time | 2h 38m |
| Altitude | 36000 |
| Route | GASGU2J GASGU N514 ADKIK DCT JOZMA DCT GAPLI/M085F360 DCT OMOKO DCT 43N020W DCT VMG/M085F380 DCT 34N030W 27N040W 20N050W/M085F400 DCT JTHON/N0486F400 DCT BGI DCT |
| Aircraft | A35K/H-SDE2E3GHIJ3J4J5LM1ORWXY/LB1D1 |
Departure
| Time | 2026-05-07 07:34 |
|---|---|
| Airport | London Heathrow Airport (EGLL) |
Arrival
| Time | 2026-05-07 10:12 |
|---|---|
| Airport | Grantley Adams International Airport (TBPB) |
| Time | Latitude | Longitude | Altitude | Speed | Heading |
|---|---|---|---|---|---|
| 2026-05-07 07:08 | 51.47205 | -0.46269 | 91 ft | 0 kts | 55° |
| 2026-05-07 07:21 | 51.47204 | -0.46272 | 91 ft | 3 kts | 54° |
| 2026-05-07 07:21 | 51.47188 | -0.46306 | 92 ft | 4 kts | 55° |
| 2026-05-07 07:22 | 51.47174 | -0.46334 | 92 ft | 4 kts | 26° |
| 2026-05-07 07:22 | 51.47153 | -0.46334 | 92 ft | 4 kts | 324° |
| 2026-05-07 07:22 | 51.47133 | -0.46307 | 93 ft | 4 kts | 320° |
| 2026-05-07 07:22 | 51.47127 | -0.46299 | 91 ft | 0 kts | 324° |
| 2026-05-07 07:26 | 51.47134 | -0.46307 | 91 ft | 2 kts | 324° |
| 2026-05-07 07:26 | 51.47153 | -0.46328 | 94 ft | 4 kts | 324° |
| 2026-05-07 07:27 | 51.47183 | -0.46363 | 95 ft | 6 kts | 323° |
| 2026-05-07 07:27 | 51.47220 | -0.46416 | 95 ft | 8 kts | 308° |
| 2026-05-07 07:27 | 51.47238 | -0.46506 | 92 ft | 9 kts | 273° |
| 2026-05-07 07:27 | 51.47238 | -0.46619 | 92 ft | 11 kts | 270° |
| 2026-05-07 07:28 | 51.47238 | -0.46749 | 90 ft | 12 kts | 269° |
| 2026-05-07 07:28 | 51.47200 | -0.46857 | 94 ft | 12 kts | 201° |
| 2026-05-07 07:28 | 51.47113 | -0.46869 | 94 ft | 13 kts | 180° |
| 2026-05-07 07:28 | 51.47019 | -0.46869 | 94 ft | 14 kts | 180° |
| 2026-05-07 07:29 | 51.46916 | -0.46870 | 94 ft | 15 kts | 180° |
| 2026-05-07 07:29 | 51.46808 | -0.46864 | 92 ft | 16 kts | 176° |
| 2026-05-07 07:29 | 51.46695 | -0.46872 | 95 ft | 16 kts | 190° |
| 2026-05-07 07:29 | 51.46658 | -0.46995 | 95 ft | 14 kts | 269° |
| 2026-05-07 07:30 | 51.46656 | -0.47166 | 92 ft | 17 kts | 269° |
| 2026-05-07 07:30 | 51.46654 | -0.47375 | 91 ft | 20 kts | 269° |
| 2026-05-07 07:30 | 51.46652 | -0.47604 | 89 ft | 21 kts | 269° |
| 2026-05-07 07:30 | 51.46653 | -0.47828 | 90 ft | 19 kts | 270° |
| 2026-05-07 07:31 | 51.46653 | -0.48034 | 91 ft | 18 kts | 270° |
| 2026-05-07 07:31 | 51.46653 | -0.48222 | 95 ft | 17 kts | 270° |
| 2026-05-07 07:31 | 51.46648 | -0.48403 | 96 ft | 13 kts | 255° |
| 2026-05-07 07:31 | 51.46611 | -0.48465 | 98 ft | 2 kts | 198° |
| 2026-05-07 07:32 | 51.46608 | -0.48465 | 98 ft | 0 kts | 188° |
| 2026-05-07 07:32 | 51.46604 | -0.48465 | 98 ft | 1 kts | 187° |
| 2026-05-07 07:32 | 51.46593 | -0.48467 | 97 ft | 2 kts | 186° |
| 2026-05-07 07:33 | 51.46571 | -0.48468 | 95 ft | 4 kts | 181° |
| 2026-05-07 07:33 | 51.46532 | -0.48468 | 94 ft | 7 kts | 179° |
| 2026-05-07 07:33 | 51.46482 | -0.48426 | 98 ft | 9 kts | 118° |
| 2026-05-07 07:33 | 51.46479 | -0.48359 | 95 ft | 0 kts | 90° |
| 2026-05-07 07:34 | 51.46480 | -0.48261 | 93 ft | 36 kts | 89° |
| 2026-05-07 07:34 | 51.46484 | -0.47373 | 91 ft | 120 kts | 91° |
| 2026-05-07 07:34 | 51.46474 | -0.45636 | 176 ft | 182 kts | 91° |
| 2026-05-07 07:34 | 51.46456 | -0.43656 | 1188 ft | 178 kts | 91° |
| 2026-05-07 07:35 | 51.46196 | -0.41666 | 1946 ft | 189 kts | 113° |
| 2026-05-07 07:35 | 51.45520 | -0.39743 | 2233 ft | 207 kts | 127° |
| 2026-05-07 07:35 | 51.44459 | -0.38100 | 2610 ft | 217 kts | 146° |
| 2026-05-07 07:35 | 51.43076 | -0.37111 | 3144 ft | 220 kts | 167° |
| 2026-05-07 07:36 | 51.41543 | -0.36968 | 3627 ft | 223 kts | 188° |
| 2026-05-07 07:36 | 51.39987 | -0.37563 | 3928 ft | 240 kts | 198° |
| 2026-05-07 07:36 | 51.38340 | -0.38427 | 4255 ft | 254 kts | 199° |
| 2026-05-07 07:36 | 51.36663 | -0.39307 | 4849 ft | 259 kts | 199° |
| 2026-05-07 07:37 | 51.34932 | -0.40195 | 5492 ft | 262 kts | 199° |
| 2026-05-07 07:37 | 51.33211 | -0.41217 | 5935 ft | 264 kts | 208° |
| 2026-05-07 07:37 | 51.31708 | -0.42895 | 6067 ft | 264 kts | 221° |
| 2026-05-07 07:37 | 51.30511 | -0.45123 | 6073 ft | 265 kts | 241° |
| 2026-05-07 07:38 | 51.29834 | -0.47850 | 6072 ft | 264 kts | 253° |
| 2026-05-07 07:38 | 51.29327 | -0.50648 | 6073 ft | 265 kts | 254° |
| 2026-05-07 07:38 | 51.28813 | -0.53483 | 6074 ft | 266 kts | 253° |
| 2026-05-07 07:38 | 51.28286 | -0.56322 | 6075 ft | 266 kts | 253° |
| 2026-05-07 07:39 | 51.27758 | -0.59161 | 6076 ft | 266 kts | 253° |
| 2026-05-07 07:39 | 51.27221 | -0.61994 | 6074 ft | 266 kts | 253° |
| 2026-05-07 07:39 | 51.26687 | -0.64784 | 6074 ft | 266 kts | 253° |
| 2026-05-07 07:39 | 51.26146 | -0.67607 | 6076 ft | 266 kts | 253° |
| 2026-05-07 07:40 | 51.25603 | -0.70437 | 6075 ft | 266 kts | 253° |
| 2026-05-07 07:40 | 51.25061 | -0.73257 | 6075 ft | 266 kts | 253° |
| 2026-05-07 07:40 | 51.24520 | -0.76070 | 6075 ft | 266 kts | 253° |
| 2026-05-07 07:40 | 51.23981 | -0.78868 | 6074 ft | 266 kts | 253° |
| 2026-05-07 07:41 | 51.23437 | -0.81691 | 6075 ft | 266 kts | 253° |
| 2026-05-07 07:41 | 51.22892 | -0.84509 | 6075 ft | 266 kts | 253° |
| 2026-05-07 07:41 | 51.22346 | -0.87333 | 6075 ft | 266 kts | 253° |
| 2026-05-07 07:41 | 51.21985 | -0.89200 | 6075 ft | 266 kts | 253° |
| 2026-05-07 07:42 | 51.21261 | -0.92931 | 6074 ft | 265 kts | 253° |
| 2026-05-07 07:42 | 51.20875 | -0.94827 | 6073 ft | 265 kts | 250° |
| 2026-05-07 07:42 | 51.20044 | -0.97461 | 6124 ft | 266 kts | 239° |
| 2026-05-07 07:42 | 51.18992 | -0.99909 | 6479 ft | 270 kts | 234° |
| 2026-05-07 07:43 | 51.17832 | -1.02267 | 7173 ft | 271 kts | 232° |
| 2026-05-07 07:43 | 51.16633 | -1.04599 | 7875 ft | 273 kts | 231° |
| 2026-05-07 07:43 | 51.15435 | -1.06924 | 8556 ft | 277 kts | 231° |
| 2026-05-07 07:43 | 51.14213 | -1.09328 | 9251 ft | 280 kts | 231° |
| 2026-05-07 07:44 | 51.12990 | -1.11775 | 9938 ft | 284 kts | 232° |
| 2026-05-07 07:44 | 51.11745 | -1.14295 | 10445 ft | 295 kts | 232° |
| 2026-05-07 07:44 | 51.10442 | -1.16951 | 10729 ft | 313 kts | 232° |
| 2026-05-07 07:44 | 51.09087 | -1.19721 | 11007 ft | 330 kts | 232° |
| 2026-05-07 07:45 | 51.07643 | -1.22676 | 11297 ft | 346 kts | 232° |
| 2026-05-07 07:45 | 51.06128 | -1.25780 | 11597 ft | 361 kts | 232° |
| 2026-05-07 07:45 | 51.04555 | -1.28985 | 11921 ft | 374 kts | 232° |
| 2026-05-07 07:45 | 51.02934 | -1.32278 | 12448 ft | 380 kts | 231° |
| 2026-05-07 07:46 | 51.01327 | -1.35651 | 13094 ft | 384 kts | 236° |
| 2026-05-07 07:46 | 51.00057 | -1.39409 | 13728 ft | 388 kts | 247° |
| 2026-05-07 07:46 | 50.99137 | -1.43408 | 14272 ft | 393 kts | 251° |
| 2026-05-07 07:46 | 50.98342 | -1.47591 | 14814 ft | 396 kts | 253° |
| 2026-05-07 07:47 | 50.97623 | -1.51822 | 15409 ft | 399 kts | 255° |
| 2026-05-07 07:47 | 50.96928 | -1.56099 | 15966 ft | 402 kts | 255° |
| 2026-05-07 07:47 | 50.96229 | -1.60406 | 16518 ft | 405 kts | 255° |
| 2026-05-07 07:47 | 50.95513 | -1.64750 | 17082 ft | 408 kts | 255° |
| 2026-05-07 07:48 | 50.94776 | -1.69132 | 17654 ft | 410 kts | 254° |
| 2026-05-07 07:48 | 50.94034 | -1.73477 | 18222 ft | 413 kts | 254° |
| 2026-05-07 07:48 | 50.93270 | -1.77900 | 18750 ft | 417 kts | 254° |
| 2026-05-07 07:48 | 50.92495 | -1.82361 | 19252 ft | 420 kts | 254° |
| 2026-05-07 07:49 | 50.91723 | -1.86795 | 19776 ft | 423 kts | 254° |
| 2026-05-07 07:49 | 50.90936 | -1.91295 | 20292 ft | 426 kts | 254° |
| 2026-05-07 07:49 | 50.90143 | -1.95825 | 20833 ft | 428 kts | 254° |
| 2026-05-07 07:49 | 50.89338 | -2.00415 | 21331 ft | 432 kts | 254° |
| 2026-05-07 07:50 | 50.88534 | -2.05012 | 21870 ft | 435 kts | 254° |
| 2026-05-07 07:50 | 50.87718 | -2.09648 | 22383 ft | 438 kts | 254° |
| 2026-05-07 07:50 | 50.86891 | -2.14325 | 22903 ft | 441 kts | 254° |
| 2026-05-07 07:50 | 50.86070 | -2.18956 | 23413 ft | 444 kts | 254° |
| 2026-05-07 07:51 | 50.85230 | -2.23678 | 23892 ft | 447 kts | 254° |
| 2026-05-07 07:51 | 50.84383 | -2.28427 | 24361 ft | 449 kts | 254° |
| 2026-05-07 07:51 | 50.83532 | -2.33193 | 24804 ft | 451 kts | 254° |
| 2026-05-07 07:51 | 50.82673 | -2.37994 | 25256 ft | 454 kts | 254° |
| 2026-05-07 07:52 | 50.81808 | -2.42814 | 25692 ft | 457 kts | 254° |
| 2026-05-07 07:52 | 50.80937 | -2.47655 | 26116 ft | 459 kts | 254° |
| 2026-05-07 07:52 | 50.80069 | -2.52538 | 26529 ft | 462 kts | 255° |
| 2026-05-07 07:52 | 50.79375 | -2.57529 | 26888 ft | 465 kts | 258° |
| 2026-05-07 07:53 | 50.78756 | -2.62515 | 27348 ft | 467 kts | 259° |
| 2026-05-07 07:53 | 50.78156 | -2.67579 | 27762 ft | 470 kts | 259° |
| 2026-05-07 07:53 | 50.77567 | -2.72667 | 28147 ft | 472 kts | 259° |
| 2026-05-07 07:53 | 50.76976 | -2.77799 | 28521 ft | 475 kts | 259° |
| 2026-05-07 07:54 | 50.76380 | -2.82946 | 28885 ft | 477 kts | 259° |
| 2026-05-07 07:54 | 50.75785 | -2.88050 | 29247 ft | 479 kts | 259° |
| 2026-05-07 07:54 | 50.75111 | -2.93776 | 29835 ft | 477 kts | 259° |
| 2026-05-07 07:54 | 50.72657 | -3.14328 | 31383 ft | 473 kts | 259° |
| 2026-05-07 07:55 | 50.70180 | -3.34736 | 32570 ft | 474 kts | 259° |
| 2026-05-07 07:55 | 50.67658 | -3.55196 | 33692 ft | 473 kts | 259° |
| 2026-05-07 07:55 | 50.65117 | -3.75513 | 34592 ft | 472 kts | 258° |
| 2026-05-07 07:55 | 50.62548 | -3.95755 | 35364 ft | 471 kts | 258° |
| 2026-05-07 07:56 | 50.59825 | -4.15739 | 35967 ft | 472 kts | 257° |
| 2026-05-07 07:56 | 50.54124 | -4.56556 | 36034 ft | 477 kts | 257° |
| 2026-05-07 07:57 | 50.48261 | -4.97526 | 36020 ft | 479 kts | 257° |
| 2026-05-07 07:57 | 50.42297 | -5.38105 | 36020 ft | 479 kts | 256° |
| 2026-05-07 07:58 | 50.36159 | -5.78802 | 36022 ft | 479 kts | 256° |
| 2026-05-07 07:58 | 50.29875 | -6.19418 | 36017 ft | 478 kts | 256° |
| 2026-05-07 07:59 | 50.23499 | -6.59616 | 36015 ft | 478 kts | 255° |
| 2026-05-07 07:59 | 50.16954 | -6.99901 | 36017 ft | 477 kts | 255° |
| 2026-05-07 08:00 | 50.10303 | -7.39870 | 36015 ft | 478 kts | 254° |
| 2026-05-07 08:00 | 50.03478 | -7.79947 | 36020 ft | 478 kts | 254° |
| 2026-05-07 08:01 | 49.94973 | -8.18895 | 36015 ft | 478 kts | 246° |
| 2026-05-07 08:01 | 49.84590 | -8.57122 | 36012 ft | 480 kts | 246° |
| 2026-05-07 08:02 | 49.74135 | -8.95094 | 36012 ft | 482 kts | 246° |
| 2026-05-07 08:02 | 49.63438 | -9.33318 | 36012 ft | 483 kts | 246° |
| 2026-05-07 08:03 | 49.52672 | -9.71178 | 36012 ft | 483 kts | 245° |
| 2026-05-07 08:03 | 49.41743 | -10.09009 | 36012 ft | 484 kts | 245° |
| 2026-05-07 08:04 | 49.30723 | -10.46563 | 36012 ft | 484 kts | 246° |
| 2026-05-07 08:04 | 49.19515 | -10.84168 | 36012 ft | 487 kts | 246° |
| 2026-05-07 08:05 | 49.08143 | -11.21744 | 36010 ft | 487 kts | 246° |
| 2026-05-07 08:05 | 48.96683 | -11.59034 | 36007 ft | 486 kts | 246° |
| 2026-05-07 08:06 | 48.85037 | -11.96216 | 36008 ft | 485 kts | 243° |
| 2026-05-07 08:06 | 48.76407 | -12.12148 | 36006 ft | 489 kts | 228° |
| 2026-05-07 08:06 | 48.67073 | -12.26862 | 35995 ft | 489 kts | 229° |
| 2026-05-07 08:07 | 48.48286 | -12.56509 | 36013 ft | 486 kts | 229° |
| 2026-05-07 08:07 | 48.29658 | -12.85587 | 36013 ft | 482 kts | 228° |
| 2026-05-07 08:08 | 48.11104 | -13.14230 | 36015 ft | 478 kts | 228° |
| 2026-05-07 08:08 | 47.92440 | -13.42726 | 36015 ft | 478 kts | 228° |
| 2026-05-07 08:09 | 47.73732 | -13.70977 | 36025 ft | 477 kts | 228° |
| 2026-05-07 08:09 | 47.55096 | -13.98816 | 36013 ft | 477 kts | 228° |
| 2026-05-07 08:10 | 47.36252 | -14.26666 | 36008 ft | 477 kts | 227° |
| 2026-05-07 08:10 | 47.17495 | -14.54093 | 36015 ft | 474 kts | 227° |
| 2026-05-07 08:11 | 46.98839 | -14.81087 | 36010 ft | 473 kts | 227° |
| 2026-05-07 08:11 | 46.80021 | -15.08035 | 35995 ft | 473 kts | 226° |
| 2026-05-07 08:12 | 46.61281 | -15.34597 | 36001 ft | 472 kts | 226° |
| 2026-05-07 08:12 | 46.42384 | -15.61109 | 35998 ft | 470 kts | 226° |
| 2026-05-07 08:13 | 46.23481 | -15.87363 | 35999 ft | 469 kts | 226° |
| 2026-05-07 08:13 | 46.04658 | -16.13244 | 35993 ft | 469 kts | 225° |
| 2026-05-07 08:14 | 45.85669 | -16.39093 | 35991 ft | 468 kts | 225° |
| 2026-05-07 08:14 | 45.66822 | -16.64500 | 35987 ft | 468 kts | 225° |
| 2026-05-07 08:15 | 45.47755 | -16.89954 | 35982 ft | 467 kts | 224° |
| 2026-05-07 08:15 | 45.28720 | -17.15119 | 35977 ft | 465 kts | 224° |
| 2026-05-07 08:16 | 45.09849 | -17.39831 | 35975 ft | 464 kts | 224° |
| 2026-05-07 08:16 | 44.90919 | -17.64387 | 35964 ft | 460 kts | 223° |
| 2026-05-07 08:17 | 44.72023 | -17.88672 | 35958 ft | 460 kts | 222° |
| 2026-05-07 08:17 | 44.53059 | -18.12819 | 35949 ft | 461 kts | 222° |
| 2026-05-07 08:18 | 44.33958 | -18.36920 | 35946 ft | 460 kts | 221° |
| 2026-05-07 08:18 | 44.14899 | -18.60748 | 35934 ft | 462 kts | 221° |
| 2026-05-07 08:19 | 43.95670 | -18.84572 | 35931 ft | 463 kts | 221° |
| 2026-05-07 08:19 | 43.76357 | -19.08284 | 35911 ft | 463 kts | 220° |
| 2026-05-07 08:20 | 43.57116 | -19.31698 | 35920 ft | 463 kts | 220° |
| 2026-05-07 08:20 | 43.37749 | -19.55055 | 35917 ft | 463 kts | 220° |
| 2026-05-07 08:21 | 43.18269 | -19.78341 | 35904 ft | 463 kts | 220° |
| 2026-05-07 08:21 | 42.98849 | -20.01361 | 35894 ft | 464 kts | 220° |
| 2026-05-07 08:22 | 42.79735 | -20.25085 | 35889 ft | 465 kts | 221° |
| 2026-05-07 08:22 | 42.60501 | -20.48673 | 35883 ft | 465 kts | 221° |
| 2026-05-07 08:23 | 42.41243 | -20.72092 | 35886 ft | 466 kts | 221° |
| 2026-05-07 08:23 | 42.21942 | -20.95361 | 35886 ft | 467 kts | 221° |
| 2026-05-07 08:24 | 42.02424 | -21.18692 | 35878 ft | 468 kts | 220° |
| 2026-05-07 08:24 | 41.82889 | -21.41846 | 35877 ft | 467 kts | 220° |
| 2026-05-07 08:25 | 41.63423 | -21.64722 | 35873 ft | 468 kts | 220° |
| 2026-05-07 08:25 | 41.43727 | -21.87674 | 35871 ft | 469 kts | 221° |
| 2026-05-07 08:26 | 41.14198 | -22.21731 | 35868 ft | 469 kts | 221° |
| 2026-05-07 08:26 | 40.94448 | -22.44273 | 35863 ft | 469 kts | 221° |
| 2026-05-07 08:27 | 40.74536 | -22.66816 | 35860 ft | 471 kts | 221° |
| 2026-05-07 08:27 | 40.54631 | -22.89165 | 35857 ft | 474 kts | 221° |
| 2026-05-07 08:28 | 40.34445 | -23.11647 | 35859 ft | 475 kts | 222° |
| 2026-05-07 08:28 | 40.14225 | -23.33984 | 35859 ft | 477 kts | 222° |
| 2026-05-07 08:29 | 39.93803 | -23.56365 | 35858 ft | 480 kts | 222° |
| 2026-05-07 08:29 | 39.73266 | -23.78685 | 35860 ft | 480 kts | 223° |
| 2026-05-07 08:30 | 39.52797 | -24.00759 | 35863 ft | 481 kts | 223° |
| 2026-05-07 08:30 | 39.32109 | -24.22889 | 35862 ft | 483 kts | 224° |
| 2026-05-07 08:31 | 39.14770 | -24.41303 | 35864 ft | 483 kts | 224° |
| 2026-05-07 08:31 | 38.93996 | -24.63207 | 35858 ft | 485 kts | 224° |
| 2026-05-07 08:32 | 38.72960 | -24.85216 | 35858 ft | 489 kts | 225° |
| 2026-05-07 08:32 | 38.51909 | -25.07062 | 35872 ft | 491 kts | 225° |
| 2026-05-07 08:33 | 38.30594 | -25.29013 | 35876 ft | 492 kts | 225° |
| 2026-05-07 08:33 | 38.09320 | -25.50752 | 35890 ft | 492 kts | 225° |
| 2026-05-07 08:34 | 37.87867 | -25.72507 | 35911 ft | 494 kts | 226° |
| 2026-05-07 08:34 | 37.67693 | -25.95724 | 35898 ft | 489 kts | 231° |
| 2026-05-07 08:35 | 37.47750 | -26.19060 | 35969 ft | 492 kts | 231° |
| 2026-05-07 08:35 | 37.27597 | -26.42462 | 35991 ft | 493 kts | 231° |
| 2026-05-07 08:36 | 37.07359 | -26.65782 | 36006 ft | 493 kts | 231° |
| 2026-05-07 08:36 | 36.87196 | -26.88840 | 36003 ft | 493 kts | 231° |
| 2026-05-07 08:37 | 36.66891 | -27.11891 | 36042 ft | 492 kts | 231° |
| 2026-05-07 08:37 | 36.46612 | -27.34735 | 36051 ft | 490 kts | 231° |
| 2026-05-07 08:38 | 36.26451 | -27.57286 | 36068 ft | 489 kts | 231° |
| 2026-05-07 08:38 | 36.06190 | -27.79783 | 36078 ft | 487 kts | 231° |
| 2026-05-07 08:39 | 35.85983 | -28.02060 | 36097 ft | 486 kts | 231° |
| 2026-05-07 08:39 | 35.65852 | -28.24094 | 36102 ft | 484 kts | 231° |
| 2026-05-07 08:40 | 35.45721 | -28.45974 | 36113 ft | 482 kts | 231° |
| 2026-05-07 08:40 | 35.25700 | -28.67584 | 36090 ft | 480 kts | 231° |
| 2026-05-07 08:41 | 35.05686 | -28.89043 | 36135 ft | 476 kts | 232° |
| 2026-05-07 08:41 | 34.85900 | -29.10106 | 36143 ft | 472 kts | 232° |
| 2026-05-07 08:42 | 34.66040 | -29.31115 | 36151 ft | 471 kts | 233° |
| 2026-05-07 08:42 | 34.46208 | -29.51958 | 36163 ft | 471 kts | 232° |
| 2026-05-07 08:43 | 34.26489 | -29.72538 | 36173 ft | 467 kts | 233° |
| 2026-05-07 08:43 | 34.06723 | -29.93049 | 36162 ft | 468 kts | 233° |
| 2026-05-07 08:44 | 33.97691 | -30.03769 | 36178 ft | 449 kts | 243° |
| 2026-05-07 08:44 | 33.90263 | -30.15804 | 36178 ft | 449 kts | 245° |
| 2026-05-07 08:44 | 33.75283 | -30.40126 | 36142 ft | 451 kts | 244° |
| 2026-05-07 08:45 | 33.60237 | -30.64344 | 36201 ft | 453 kts | 244° |
| 2026-05-07 08:45 | 33.45079 | -30.88580 | 36200 ft | 455 kts | 243° |
| 2026-05-07 08:46 | 33.29784 | -31.12874 | 36201 ft | 457 kts | 242° |
| 2026-05-07 08:46 | 33.14487 | -31.37009 | 36204 ft | 458 kts | 242° |
| 2026-05-07 08:47 | 32.98966 | -31.61342 | 36205 ft | 459 kts | 242° |
| 2026-05-07 08:47 | 32.83421 | -31.85552 | 36204 ft | 461 kts | 241° |
| 2026-05-07 08:48 | 32.67824 | -32.09682 | 36201 ft | 461 kts | 240° |
| 2026-05-07 08:48 | 32.52224 | -32.33665 | 36214 ft | 462 kts | 240° |
| 2026-05-07 08:49 | 32.36459 | -32.57747 | 36216 ft | 462 kts | 240° |
| 2026-05-07 08:49 | 32.20602 | -32.81813 | 36216 ft | 462 kts | 239° |
| 2026-05-07 08:50 | 32.04788 | -33.05668 | 36220 ft | 463 kts | 239° |
| 2026-05-07 08:50 | 31.88861 | -33.29538 | 36219 ft | 463 kts | 239° |
| 2026-05-07 08:51 | 31.72888 | -33.53327 | 36221 ft | 462 kts | 239° |
| 2026-05-07 08:51 | 31.56861 | -33.77055 | 36223 ft | 463 kts | 239° |
| 2026-05-07 08:52 | 31.40861 | -34.00590 | 36221 ft | 463 kts | 239° |
| 2026-05-07 08:52 | 31.24724 | -34.24187 | 36225 ft | 464 kts | 238° |
| 2026-05-07 08:53 | 31.08622 | -34.47590 | 36227 ft | 464 kts | 238° |
| 2026-05-07 08:53 | 30.92301 | -34.71167 | 36230 ft | 465 kts | 238° |
| 2026-05-07 08:54 | 30.76100 | -34.94429 | 36233 ft | 466 kts | 238° |
| 2026-05-07 08:54 | 30.59681 | -35.17866 | 36232 ft | 467 kts | 237° |
| 2026-05-07 08:55 | 30.43282 | -35.41136 | 36239 ft | 467 kts | 237° |
| 2026-05-07 08:55 | 30.26751 | -35.64456 | 36235 ft | 467 kts | 237° |
| 2026-05-07 08:56 | 30.10205 | -35.87660 | 36233 ft | 466 kts | 237° |
| 2026-05-07 08:56 | 29.93718 | -36.10650 | 36232 ft | 468 kts | 236° |
| 2026-05-07 08:57 | 29.77055 | -36.33749 | 36238 ft | 468 kts | 236° |
| 2026-05-07 08:57 | 29.60316 | -36.56822 | 36234 ft | 468 kts | 236° |
| 2026-05-07 08:58 | 29.43613 | -36.79715 | 36236 ft | 469 kts | 236° |
| 2026-05-07 08:58 | 29.26844 | -37.02569 | 36235 ft | 470 kts | 236° |
| 2026-05-07 08:59 | 29.09949 | -37.25467 | 36229 ft | 470 kts | 236° |
| 2026-05-07 08:59 | 28.93074 | -37.48209 | 36224 ft | 470 kts | 236° |
| 2026-05-07 09:00 | 28.76124 | -37.70929 | 36226 ft | 469 kts | 236° |
| 2026-05-07 09:00 | 28.59080 | -37.93648 | 36227 ft | 470 kts | 235° |
| 2026-05-07 09:01 | 28.42167 | -38.16072 | 36224 ft | 470 kts | 235° |
| 2026-05-07 09:01 | 28.25092 | -38.38589 | 36220 ft | 470 kts | 234° |
| 2026-05-07 09:02 | 28.07941 | -38.61084 | 36220 ft | 470 kts | 234° |
| 2026-05-07 09:02 | 27.90855 | -38.83375 | 36206 ft | 470 kts | 234° |
| 2026-05-07 09:03 | 27.73583 | -39.05790 | 36211 ft | 472 kts | 234° |
| 2026-05-07 09:03 | 27.56307 | -39.28093 | 36208 ft | 472 kts | 234° |
| 2026-05-07 09:04 | 27.39085 | -39.50212 | 36211 ft | 473 kts | 233° |
| 2026-05-07 09:04 | 27.21698 | -39.72428 | 36207 ft | 472 kts | 233° |
| 2026-05-07 09:05 | 27.04350 | -39.94482 | 36199 ft | 473 kts | 233° |
| 2026-05-07 09:05 | 26.88604 | -40.18029 | 36196 ft | 469 kts | 239° |
| 2026-05-07 09:06 | 26.73563 | -40.41756 | 36200 ft | 469 kts | 238° |
| 2026-05-07 09:06 | 26.58406 | -40.65526 | 36191 ft | 469 kts | 238° |
| 2026-05-07 09:07 | 26.43281 | -40.89123 | 36191 ft | 469 kts | 238° |
| 2026-05-07 09:07 | 26.28036 | -41.12784 | 36190 ft | 468 kts | 238° |
| 2026-05-07 09:08 | 26.12869 | -41.36203 | 36188 ft | 468 kts | 237° |
| 2026-05-07 09:08 | 25.97514 | -41.59791 | 36183 ft | 470 kts | 237° |
| 2026-05-07 09:09 | 25.82216 | -41.83172 | 36183 ft | 470 kts | 237° |
| 2026-05-07 09:09 | 25.66775 | -42.06654 | 36180 ft | 470 kts | 236° |
| 2026-05-07 09:10 | 25.51293 | -42.30079 | 36170 ft | 472 kts | 236° |
| 2026-05-07 09:10 | 25.35837 | -42.53350 | 36170 ft | 472 kts | 236° |
| 2026-05-07 09:11 | 25.20250 | -42.76702 | 36180 ft | 472 kts | 236° |
| 2026-05-07 09:11 | 25.04570 | -43.00079 | 36168 ft | 473 kts | 235° |
| 2026-05-07 09:12 | 24.88923 | -43.23292 | 36168 ft | 473 kts | 235° |
| 2026-05-07 09:12 | 24.73141 | -43.46595 | 36162 ft | 473 kts | 234° |
| 2026-05-07 09:13 | 24.57439 | -43.69667 | 36156 ft | 475 kts | 234° |
| 2026-05-07 09:13 | 24.41539 | -43.92918 | 36157 ft | 475 kts | 234° |
| 2026-05-07 09:14 | 24.25626 | -44.16079 | 36147 ft | 474 kts | 234° |
| 2026-05-07 09:14 | 24.09775 | -44.39041 | 36146 ft | 475 kts | 234° |
| 2026-05-07 09:15 | 23.93784 | -44.62098 | 36141 ft | 474 kts | 234° |
| 2026-05-07 09:15 | 23.77915 | -44.84876 | 36142 ft | 473 kts | 233° |
| 2026-05-07 09:16 | 23.61894 | -45.07766 | 36131 ft | 474 kts | 233° |
| 2026-05-07 09:16 | 23.45948 | -45.30447 | 36137 ft | 474 kts | 233° |
| 2026-05-07 09:17 | 23.29858 | -45.53229 | 36129 ft | 473 kts | 233° |
| 2026-05-07 09:17 | 23.13808 | -45.75855 | 36130 ft | 473 kts | 233° |
| 2026-05-07 09:18 | 22.97770 | -45.98364 | 36131 ft | 472 kts | 233° |
| 2026-05-07 09:18 | 22.81672 | -46.20860 | 36121 ft | 471 kts | 233° |
| 2026-05-07 09:19 | 22.65647 | -46.43158 | 36119 ft | 471 kts | 232° |
| 2026-05-07 09:19 | 22.49480 | -46.65556 | 36119 ft | 470 kts | 232° |
| 2026-05-07 09:20 | 22.33405 | -46.87734 | 36118 ft | 471 kts | 232° |
| 2026-05-07 09:20 | 22.19875 | -47.06329 | 36110 ft | 472 kts | 232° |
| 2026-05-07 09:21 | 22.03632 | -47.28567 | 36108 ft | 471 kts | 232° |
| 2026-05-07 09:21 | 21.87339 | -47.50781 | 36108 ft | 471 kts | 232° |
| 2026-05-07 09:22 | 21.71151 | -47.72762 | 36105 ft | 471 kts | 232° |
| 2026-05-07 09:22 | 21.54814 | -47.94855 | 36102 ft | 471 kts | 232° |
| 2026-05-07 09:23 | 21.38427 | -48.16927 | 36102 ft | 471 kts | 232° |
| 2026-05-07 09:23 | 21.22130 | -48.38792 | 36098 ft | 470 kts | 231° |
| 2026-05-07 09:24 | 21.05767 | -48.60657 | 36086 ft | 470 kts | 231° |
| 2026-05-07 09:24 | 20.89356 | -48.82502 | 36094 ft | 470 kts | 231° |
| 2026-05-07 09:25 | 20.72894 | -49.04329 | 36092 ft | 471 kts | 231° |
| 2026-05-07 09:25 | 20.56491 | -49.25995 | 36091 ft | 471 kts | 231° |
| 2026-05-07 09:26 | 20.39916 | -49.47806 | 36091 ft | 471 kts | 231° |
| 2026-05-07 09:26 | 20.23395 | -49.69462 | 36089 ft | 471 kts | 231° |
| 2026-05-07 09:27 | 20.06915 | -49.90985 | 36091 ft | 471 kts | 231° |
| 2026-05-07 09:28 | 19.83830 | -50.24816 | 36088 ft | 469 kts | 236° |
| 2026-05-07 09:28 | 19.68957 | -50.47526 | 36085 ft | 469 kts | 235° |
| 2026-05-07 09:29 | 19.54126 | -50.70104 | 36081 ft | 468 kts | 235° |
| 2026-05-07 09:29 | 19.39193 | -50.92753 | 36081 ft | 467 kts | 235° |
| 2026-05-07 09:30 | 19.24223 | -51.15373 | 36085 ft | 468 kts | 235° |
| 2026-05-07 09:30 | 19.09308 | -51.37828 | 36082 ft | 468 kts | 235° |
| 2026-05-07 09:31 | 18.94293 | -51.60352 | 36080 ft | 468 kts | 235° |
| 2026-05-07 09:31 | 18.79354 | -51.82680 | 36078 ft | 468 kts | 235° |
| 2026-05-07 09:32 | 18.64277 | -52.05136 | 36080 ft | 467 kts | 235° |
| 2026-05-07 09:32 | 18.49193 | -52.27522 | 36081 ft | 468 kts | 235° |
| 2026-05-07 09:33 | 18.34162 | -52.49751 | 36080 ft | 469 kts | 235° |
| 2026-05-07 09:33 | 18.19011 | -52.72081 | 36078 ft | 468 kts | 235° |
| 2026-05-07 09:34 | 18.03895 | -52.94283 | 36079 ft | 469 kts | 235° |
| 2026-05-07 09:34 | 17.88195 | -53.16252 | 36078 ft | 470 kts | 233° |
| 2026-05-07 09:35 | 17.72283 | -53.38077 | 36075 ft | 469 kts | 233° |
| 2026-05-07 09:35 | 17.56464 | -53.59715 | 36075 ft | 470 kts | 233° |
| 2026-05-07 09:36 | 17.40600 | -53.81345 | 36075 ft | 468 kts | 233° |
| 2026-05-07 09:36 | 17.24678 | -54.02986 | 36072 ft | 468 kts | 233° |
| 2026-05-07 09:37 | 17.08749 | -54.24566 | 36075 ft | 468 kts | 233° |
| 2026-05-07 09:37 | 16.92808 | -54.46095 | 36072 ft | 466 kts | 233° |
| 2026-05-07 09:38 | 16.76984 | -54.67401 | 36072 ft | 466 kts | 233° |
| 2026-05-07 09:38 | 16.61080 | -54.88749 | 36073 ft | 466 kts | 233° |
| 2026-05-07 09:39 | 16.45225 | -55.09967 | 36072 ft | 464 kts | 233° |
| 2026-05-07 09:39 | 16.29270 | -55.31255 | 36069 ft | 464 kts | 233° |
| 2026-05-07 09:40 | 16.13456 | -55.52293 | 36072 ft | 465 kts | 233° |
| 2026-05-07 09:40 | 15.97512 | -55.73442 | 36064 ft | 463 kts | 233° |
| 2026-05-07 09:41 | 15.81574 | -55.94523 | 36067 ft | 462 kts | 233° |
| 2026-05-07 09:41 | 15.65636 | -56.15543 | 36064 ft | 464 kts | 233° |
| 2026-05-07 09:42 | 15.49714 | -56.36483 | 36053 ft | 463 kts | 233° |
| 2026-05-07 09:42 | 15.33753 | -56.57418 | 36063 ft | 464 kts | 233° |
| 2026-05-07 09:43 | 15.17770 | -56.78322 | 36061 ft | 462 kts | 233° |
| 2026-05-07 09:43 | 15.01824 | -56.99122 | 36047 ft | 460 kts | 233° |
| 2026-05-07 09:44 | 14.85908 | -57.19827 | 36059 ft | 460 kts | 233° |
| 2026-05-07 09:44 | 14.69984 | -57.40489 | 36057 ft | 461 kts | 232° |
| 2026-05-07 09:45 | 14.53993 | -57.61182 | 36057 ft | 460 kts | 232° |
| 2026-05-07 09:45 | 14.37936 | -57.81908 | 36055 ft | 461 kts | 232° |
| 2026-05-07 09:46 | 14.23486 | -58.01786 | 36065 ft | 460 kts | 253° |
| 2026-05-07 09:46 | 14.22981 | -58.05034 | 36049 ft | 461 kts | 268° |
| 2026-05-07 09:46 | 14.23247 | -58.08340 | 36048 ft | 464 kts | 276° |
| 2026-05-07 09:47 | 14.24138 | -58.14904 | 36061 ft | 466 kts | 276° |
| 2026-05-07 09:47 | 14.25034 | -58.21485 | 36052 ft | 466 kts | 275° |
| 2026-05-07 09:47 | 14.25211 | -58.24817 | 36063 ft | 462 kts | 264° |
| 2026-05-07 09:48 | 14.24652 | -58.28065 | 36054 ft | 458 kts | 252° |
| 2026-05-07 09:48 | 14.22054 | -58.34043 | 36053 ft | 459 kts | 240° |
| 2026-05-07 09:49 | 14.18600 | -58.39545 | 35932 ft | 459 kts | 236° |
| 2026-05-07 09:49 | 14.16769 | -58.42201 | 35515 ft | 452 kts | 235° |
| 2026-05-07 09:49 | 14.14904 | -58.44833 | 34773 ft | 452 kts | 234° |
| 2026-05-07 09:49 | 14.13031 | -58.47435 | 34024 ft | 454 kts | 234° |
| 2026-05-07 09:50 | 14.11132 | -58.50051 | 33190 ft | 455 kts | 234° |
| 2026-05-07 09:50 | 14.09227 | -58.52663 | 32416 ft | 455 kts | 234° |
| 2026-05-07 09:50 | 14.07338 | -58.55247 | 31638 ft | 456 kts | 233° |
| 2026-05-07 09:50 | 14.05422 | -58.57864 | 30835 ft | 458 kts | 233° |
| 2026-05-07 09:51 | 14.03491 | -58.60497 | 29992 ft | 461 kts | 233° |
| 2026-05-07 09:51 | 14.01554 | -58.63138 | 29178 ft | 461 kts | 233° |
| 2026-05-07 09:51 | 13.99630 | -58.65760 | 28622 ft | 455 kts | 233° |
| 2026-05-07 09:51 | 13.97754 | -58.68315 | 28042 ft | 450 kts | 233° |
| 2026-05-07 09:52 | 13.95861 | -58.70893 | 27456 ft | 446 kts | 233° |
| 2026-05-07 09:52 | 13.93989 | -58.73440 | 26883 ft | 443 kts | 233° |
| 2026-05-07 09:52 | 13.92136 | -58.75963 | 26299 ft | 440 kts | 233° |
| 2026-05-07 09:52 | 13.90316 | -58.78438 | 25730 ft | 437 kts | 233° |
| 2026-05-07 09:53 | 13.88486 | -58.80927 | 25168 ft | 434 kts | 233° |
| 2026-05-07 09:53 | 13.86667 | -58.83399 | 24612 ft | 431 kts | 233° |
| 2026-05-07 09:53 | 13.84850 | -58.85869 | 24036 ft | 428 kts | 233° |
| 2026-05-07 09:53 | 13.83055 | -58.88308 | 23446 ft | 426 kts | 233° |
| 2026-05-07 09:54 | 13.81294 | -58.90700 | 22851 ft | 421 kts | 233° |
| 2026-05-07 09:54 | 13.79530 | -58.93094 | 22292 ft | 417 kts | 233° |
| 2026-05-07 09:54 | 13.77784 | -58.95463 | 21737 ft | 414 kts | 233° |
| 2026-05-07 09:54 | 13.76054 | -58.97811 | 21206 ft | 411 kts | 233° |
| 2026-05-07 09:55 | 13.74328 | -59.00152 | 20637 ft | 408 kts | 233° |
| 2026-05-07 09:55 | 13.72616 | -59.02473 | 20071 ft | 405 kts | 233° |
| 2026-05-07 09:55 | 13.70937 | -59.04750 | 19535 ft | 402 kts | 233° |
| 2026-05-07 09:55 | 13.69246 | -59.07043 | 18986 ft | 400 kts | 233° |
| 2026-05-07 09:56 | 13.67569 | -59.09316 | 18429 ft | 396 kts | 234° |
| 2026-05-07 09:56 | 13.65926 | -59.11542 | 17818 ft | 393 kts | 234° |
| 2026-05-07 09:56 | 13.64274 | -59.13778 | 17244 ft | 392 kts | 234° |
| 2026-05-07 09:56 | 13.62624 | -59.16012 | 16677 ft | 392 kts | 234° |
| 2026-05-07 09:57 | 13.60963 | -59.18263 | 16110 ft | 393 kts | 234° |
| 2026-05-07 09:57 | 13.59303 | -59.20511 | 15529 ft | 393 kts | 235° |
| 2026-05-07 09:57 | 13.57663 | -59.22730 | 14962 ft | 394 kts | 234° |
| 2026-05-07 09:57 | 13.56006 | -59.24974 | 14376 ft | 393 kts | 234° |
| 2026-05-07 09:58 | 13.54350 | -59.27212 | 13801 ft | 392 kts | 234° |
| 2026-05-07 09:58 | 13.52699 | -59.29445 | 13178 ft | 391 kts | 234° |
| 2026-05-07 09:58 | 13.51063 | -59.31658 | 12592 ft | 386 kts | 234° |
| 2026-05-07 09:58 | 13.49453 | -59.33833 | 12045 ft | 382 kts | 234° |
| 2026-05-07 09:59 | 13.47847 | -59.36003 | 11487 ft | 379 kts | 234° |
| 2026-05-07 09:59 | 13.46279 | -59.38120 | 11307 ft | 363 kts | 234° |
| 2026-05-07 09:59 | 13.44781 | -59.40140 | 11212 ft | 346 kts | 234° |
| 2026-05-07 09:59 | 13.43376 | -59.42037 | 11115 ft | 330 kts | 234° |
| 2026-05-07 10:00 | 13.42011 | -59.43879 | 10955 ft | 317 kts | 234° |
| 2026-05-07 10:00 | 13.40700 | -59.45649 | 10820 ft | 304 kts | 234° |
| 2026-05-07 10:00 | 13.39441 | -59.47347 | 10682 ft | 292 kts | 234° |
| 2026-05-07 10:00 | 13.38232 | -59.48979 | 10517 ft | 290 kts | 234° |
| 2026-05-07 10:01 | 13.37013 | -59.50626 | 10160 ft | 288 kts | 234° |
| 2026-05-07 10:01 | 13.35805 | -59.52258 | 9833 ft | 290 kts | 233° |
| 2026-05-07 10:01 | 13.34542 | -59.53962 | 9528 ft | 303 kts | 233° |
| 2026-05-07 10:01 | 13.33256 | -59.55695 | 9186 ft | 305 kts | 233° |
| 2026-05-07 10:02 | 13.31988 | -59.57403 | 8827 ft | 302 kts | 233° |
| 2026-05-07 10:02 | 13.30716 | -59.59117 | 8485 ft | 299 kts | 233° |
| 2026-05-07 10:02 | 13.29465 | -59.60841 | 8117 ft | 298 kts | 235° |
| 2026-05-07 10:02 | 13.28264 | -59.62538 | 7746 ft | 298 kts | 234° |
| 2026-05-07 10:03 | 13.27042 | -59.64259 | 7407 ft | 296 kts | 233° |
| 2026-05-07 10:03 | 13.25746 | -59.65906 | 7083 ft | 294 kts | 228° |
| 2026-05-07 10:03 | 13.24344 | -59.67391 | 6771 ft | 292 kts | 223° |
| 2026-05-07 10:03 | 13.22829 | -59.68728 | 6596 ft | 281 kts | 218° |
| 2026-05-07 10:04 | 13.21277 | -59.69882 | 6435 ft | 270 kts | 213° |
| 2026-05-07 10:04 | 13.19697 | -59.70877 | 6163 ft | 263 kts | 208° |
| 2026-05-07 10:04 | 13.18093 | -59.71721 | 5984 ft | 253 kts | 204° |
| 2026-05-07 10:04 | 13.16511 | -59.72413 | 5859 ft | 240 kts | 200° |
| 2026-05-07 10:05 | 13.15002 | -59.72957 | 5734 ft | 227 kts | 195° |
| 2026-05-07 10:05 | 13.13498 | -59.73390 | 5465 ft | 222 kts | 192° |
| 2026-05-07 10:05 | 13.12001 | -59.73719 | 5171 ft | 218 kts | 188° |
| 2026-05-07 10:05 | 13.10510 | -59.73950 | 4886 ft | 214 kts | 184° |
| 2026-05-07 10:06 | 13.09037 | -59.74087 | 4592 ft | 210 kts | 180° |
| 2026-05-07 10:06 | 13.07604 | -59.74095 | 4315 ft | 204 kts | 171° |
| 2026-05-07 10:06 | 13.06265 | -59.73745 | 4033 ft | 195 kts | 152° |
| 2026-05-07 10:06 | 13.05173 | -59.72996 | 3741 ft | 185 kts | 132° |
| 2026-05-07 10:07 | 13.04417 | -59.71952 | 3463 ft | 180 kts | 114° |
| 2026-05-07 10:07 | 13.03997 | -59.70757 | 3177 ft | 177 kts | 102° |
| 2026-05-07 10:07 | 13.03706 | -59.69573 | 3050 ft | 168 kts | 100° |
| 2026-05-07 10:07 | 13.03761 | -59.68385 | 3046 ft | 168 kts | 78° |
| 2026-05-07 10:08 | 13.03966 | -59.67194 | 3043 ft | 169 kts | 78° |
| 2026-05-07 10:08 | 13.04149 | -59.66001 | 3041 ft | 168 kts | 80° |
| 2026-05-07 10:08 | 13.04305 | -59.64806 | 3044 ft | 168 kts | 81° |
| 2026-05-07 10:08 | 13.04433 | -59.63670 | 3042 ft | 152 kts | 82° |
| 2026-05-07 10:09 | 13.04542 | -59.62628 | 3021 ft | 147 kts | 82° |
| 2026-05-07 10:09 | 13.04645 | -59.61576 | 2858 ft | 148 kts | 84° |
| 2026-05-07 10:09 | 13.04775 | -59.60533 | 2690 ft | 147 kts | 76° |
| 2026-05-07 10:09 | 13.05016 | -59.59520 | 2501 ft | 146 kts | 76° |
| 2026-05-07 10:10 | 13.05230 | -59.58512 | 2281 ft | 145 kts | 78° |
| 2026-05-07 10:10 | 13.05446 | -59.57511 | 2010 ft | 143 kts | 75° |
| 2026-05-07 10:10 | 13.05696 | -59.56519 | 1636 ft | 145 kts | 72° |
| 2026-05-07 10:10 | 13.05884 | -59.55858 | 1347 ft | 146 kts | 73° |
| 2026-05-07 10:11 | 13.06105 | -59.54866 | 1072 ft | 139 kts | 76° |
| 2026-05-07 10:11 | 13.06386 | -59.53616 | 758 ft | 135 kts | 75° |
| 2026-05-07 10:11 | 13.06623 | -59.52659 | 637 ft | 141 kts | 74° |
| 2026-05-07 10:11 | 13.06783 | -59.52000 | 464 ft | 144 kts | 73° |
| 2026-05-07 10:12 | 13.07034 | -59.51000 | 268 ft | 145 kts | 76° |
| 2026-05-07 10:12 | 13.07274 | -59.50016 | 197 ft | 133 kts | 80° |
| 2026-05-07 10:12 | 13.07440 | -59.49293 | 180 ft | 66 kts | 77° |
| 2026-05-07 10:12 | 13.07497 | -59.49069 | 180 ft | 20 kts | 72° |
| 2026-05-07 10:13 | 13.07573 | -59.48955 | 180 ft | 20 kts | 46° |
| 2026-05-07 10:13 | 13.07633 | -59.48891 | 181 ft | 7 kts | 45° |
| 2026-05-07 10:13 | 13.07673 | -59.48848 | 182 ft | 10 kts | 45° |
| 2026-05-07 10:13 | 13.07723 | -59.48798 | 182 ft | 11 kts | 45° |
| 2026-05-07 10:14 | 13.07776 | -59.48730 | 182 ft | 13 kts | 66° |
| 2026-05-07 10:14 | 13.07798 | -59.48666 | 181 ft | 6 kts | 58° |
| 2026-05-07 10:14 | 13.07825 | -59.48665 | 182 ft | 4 kts | 332° |
| 2026-05-07 10:14 | 13.07857 | -59.48677 | 182 ft | 6 kts | 344° |
| 2026-05-07 10:15 | 13.07888 | -59.48685 | 182 ft | 0 kts | 346° |